createdAt,value
2019-03-28T00:00:00.341Z,8.58
2019-03-28T00:02:31.041Z,8.65
2019-03-28T00:05:01.557Z,8.67
2019-03-28T00:07:32.185Z,8.71
2019-03-28T00:10:02.964Z,8.63
2019-03-28T00:12:33.521Z,8.62
2019-03-28T00:15:06.336Z,8.63
2019-03-28T00:17:37.326Z,8.66
2019-03-28T00:20:08.016Z,8.56
2019-03-28T00:22:52.430Z,8.50
2019-03-28T00:25:25.020Z,8.53
2019-03-28T00:27:55.589Z,8.50
2019-03-28T00:30:26.043Z,8.43
2019-03-28T00:32:56.730Z,8.47
2019-03-28T00:35:27.258Z,8.46
2019-03-28T00:37:57.733Z,8.44
2019-03-28T00:40:28.263Z,8.40
2019-03-28T00:42:58.834Z,8.44
2019-03-28T00:45:29.345Z,8.40
2019-03-28T00:47:59.895Z,8.40
2019-03-28T00:50:32.910Z,8.35
2019-03-28T00:53:02.594Z,8.41
2019-03-28T00:55:33.118Z,8.42
2019-03-28T00:58:03.821Z,8.35
2019-03-28T01:00:34.281Z,8.35
2019-03-28T01:03:04.836Z,8.34
2019-03-28T01:05:35.373Z,8.39
2019-03-28T01:08:06.946Z,8.35
2019-03-28T01:10:37.467Z,8.42
2019-03-28T01:13:08.024Z,8.43
2019-03-28T01:15:38.548Z,8.43
2019-03-28T01:18:09.019Z,8.44
2019-03-28T01:20:39.644Z,8.44
2019-03-28T01:23:10.136Z,8.46
2019-03-28T01:25:40.582Z,8.46
2019-03-28T01:28:11.131Z,8.52
2019-03-28T01:30:41.583Z,8.50
2019-03-28T01:33:12.072Z,8.51
2019-03-28T01:35:42.590Z,8.51
2019-03-28T01:38:13.243Z,8.53
2019-03-28T01:40:43.775Z,8.51
2019-03-28T01:43:14.317Z,8.52
2019-03-28T01:45:44.769Z,8.45
2019-03-28T01:48:15.353Z,8.47
2019-03-28T01:50:45.804Z,8.46
2019-03-28T01:53:16.294Z,8.45
2019-03-28T01:55:46.840Z,8.49
2019-03-28T01:58:17.464Z,8.47
2019-03-28T02:00:47.910Z,8.44
2019-03-28T02:03:19.429Z,8.40
2019-03-28T02:05:50.958Z,8.43
2019-03-28T02:08:21.451Z,8.43
2019-03-28T02:10:51.962Z,8.43
2019-03-28T02:13:22.448Z,8.41
2019-03-28T02:15:52.985Z,8.48
2019-03-28T02:18:23.562Z,8.53
2019-03-28T02:20:54.058Z,8.51
2019-03-28T02:23:24.532Z,8.53
2019-03-28T02:25:55.011Z,8.54
2019-03-28T02:28:25.550Z,8.49
2019-03-28T02:30:56.001Z,8.55
2019-03-28T02:33:26.564Z,8.52
2019-03-28T02:35:57.159Z,8.48
2019-03-28T02:38:27.669Z,8.46
2019-03-28T02:40:58.256Z,8.49
2019-03-28T02:43:28.737Z,8.46
2019-03-28T02:45:59.272Z,8.46
2019-03-28T02:48:31.069Z,8.46
2019-03-28T02:51:01.859Z,8.44
2019-03-28T02:53:32.501Z,8.42
2019-03-28T02:56:03.020Z,8.40
2019-03-28T02:58:33.671Z,8.35
2019-03-28T03:01:04.230Z,8.29
2019-03-28T03:03:34.742Z,8.27
2019-03-28T03:06:05.393Z,8.24
2019-03-28T03:08:35.890Z,8.26
2019-03-28T03:11:06.424Z,8.26
2019-03-28T03:13:36.938Z,8.25
2019-03-28T03:16:07.456Z,8.31
2019-03-28T03:18:38.010Z,8.32
2019-03-28T03:21:09.868Z,8.35
2019-03-28T03:23:40.793Z,8.38
2019-03-28T03:26:11.355Z,8.46
2019-03-28T03:28:42.083Z,8.48
2019-03-28T03:31:12.585Z,8.52
2019-03-28T03:33:43.136Z,8.48
2019-03-28T03:36:13.652Z,8.52
2019-03-28T03:38:44.203Z,8.53
2019-03-28T03:41:14.725Z,8.58
2019-03-28T03:43:45.230Z,8.58
2019-03-28T03:46:15.746Z,8.59
2019-03-28T03:48:46.294Z,8.62
2019-03-28T03:51:16.742Z,8.64
2019-03-28T03:53:47.302Z,8.69
2019-03-28T03:56:17.756Z,8.73
2019-03-28T03:58:48.221Z,8.70
2019-03-28T04:01:18.938Z,8.69
2019-03-28T04:03:49.499Z,8.66
2019-03-28T04:06:20.082Z,8.70
2019-03-28T04:08:50.549Z,8.71
2019-03-28T04:11:21.168Z,8.70
2019-03-28T04:13:51.651Z,8.73
2019-03-28T04:16:22.178Z,8.71
2019-03-28T04:18:52.945Z,8.76
2019-03-28T04:21:23.392Z,8.80
2019-03-28T04:23:53.904Z,8.80
2019-03-28T04:26:25.986Z,8.78
2019-03-28T04:28:56.561Z,8.83
2019-03-28T04:31:27.081Z,8.83
2019-03-28T04:33:58.634Z,8.84
2019-03-28T04:36:29.074Z,8.84
2019-03-28T04:38:59.688Z,8.81
2019-03-28T04:41:30.151Z,8.78
2019-03-28T04:44:00.687Z,8.76
2019-03-28T04:46:31.127Z,8.78
2019-03-28T04:49:01.590Z,8.79
2019-03-28T04:51:32.115Z,8.81
2019-03-28T04:54:03.530Z,8.84
2019-03-28T04:56:34.057Z,8.83
2019-03-28T04:59:04.729Z,8.86
2019-03-28T05:01:35.372Z,8.85
2019-03-28T05:04:06.007Z,8.88
2019-03-28T05:06:37.977Z,8.88
2019-03-28T05:09:08.832Z,8.88
2019-03-28T05:11:39.707Z,8.90
2019-03-28T05:14:11.312Z,8.88
2019-03-28T05:16:41.939Z,8.91
2019-03-28T05:19:12.736Z,9.01
2019-03-28T05:21:44.451Z,9.03
2019-03-28T05:24:16.066Z,9.12
2019-03-28T05:26:46.578Z,9.09
2019-03-28T05:29:17.059Z,9.06
2019-03-28T05:31:47.574Z,9.05
2019-03-28T05:34:18.118Z,9.06
2019-03-28T05:36:52.096Z,9.10
2019-03-28T05:39:22.109Z,9.23
2019-03-28T05:41:52.616Z,9.32
2019-03-28T05:44:23.095Z,9.34
2019-03-28T05:46:53.618Z,9.42
2019-03-28T05:49:26.206Z,9.43
2019-03-28T05:51:56.776Z,9.44
2019-03-28T05:54:27.312Z,9.44
2019-03-28T06:00:28.495Z,9.42
2019-03-28T06:02:59.033Z,9.50
2019-03-28T06:05:29.546Z,9.69
2019-03-28T06:08:00.092Z,9.74
2019-03-28T06:10:31.531Z,9.73
2019-03-28T06:13:03.190Z,9.80
2019-03-28T06:15:34.280Z,9.82
2019-03-28T06:18:05.776Z,9.90
2019-03-28T06:20:36.244Z,10.06
2019-03-28T06:23:06.750Z,10.05
2019-03-28T06:25:40.770Z,10.00
2019-03-28T06:28:09.522Z,10.00
2019-03-28T06:30:40.451Z,9.98
2019-03-28T06:33:12.055Z,10.07
2019-03-28T06:35:42.678Z,10.15
2019-03-28T06:38:13.280Z,10.19
2019-03-28T06:41:06.996Z,10.59
2019-03-28T06:43:37.760Z,10.70
2019-03-28T06:46:08.812Z,10.78
2019-03-28T06:48:39.419Z,10.87
2019-03-28T06:51:09.951Z,10.95
2019-03-28T06:53:40.445Z,10.82
2019-03-28T06:56:11.022Z,10.62
2019-03-28T06:58:41.530Z,10.58
2019-03-28T07:01:12.073Z,10.57
2019-03-28T07:03:42.516Z,10.62
2019-03-28T07:06:13.130Z,10.80
2019-03-28T07:08:44.608Z,10.77
2019-03-28T07:11:15.166Z,10.95
2019-03-28T07:13:45.689Z,10.81
2019-03-28T07:16:16.252Z,10.79
2019-03-28T07:18:46.698Z,10.92
2019-03-28T07:21:18.258Z,10.83
2019-03-28T07:23:48.945Z,11.11
2019-03-28T07:26:20.056Z,11.05
2019-03-28T07:28:50.574Z,11.27
2019-03-28T07:31:21.040Z,11.41
2019-03-28T07:33:51.562Z,11.55
2019-03-28T07:36:22.111Z,11.39
2019-03-28T07:38:53.633Z,11.45
2019-03-28T07:41:24.117Z,11.57
2019-03-28T07:43:54.637Z,11.70
2019-03-28T07:46:25.104Z,11.95
2019-03-28T07:48:55.679Z,11.95
2019-03-28T07:51:26.342Z,12.02
2019-03-28T07:53:56.865Z,12.14
2019-03-28T07:56:27.493Z,12.22
2019-03-28T07:58:58.076Z,12.45
2019-03-28T08:01:28.558Z,12.37
2019-03-28T08:03:59.210Z,12.68
2019-03-28T08:06:30.983Z,12.70
2019-03-28T08:09:01.408Z,12.42
2019-03-28T08:11:33.461Z,12.51
2019-03-28T08:14:03.866Z,12.52
2019-03-28T08:16:34.346Z,12.63
2019-03-28T08:19:07.813Z,12.78
2019-03-28T08:21:37.168Z,12.74
2019-03-28T08:24:07.663Z,12.92
2019-03-28T08:26:38.208Z,13.26
2019-03-28T08:29:08.726Z,13.49
2019-03-28T08:31:40.957Z,13.33
2019-03-28T08:34:11.501Z,13.49
2019-03-28T08:36:42.160Z,13.21
2019-03-28T08:39:12.690Z,13.04
2019-03-28T08:41:43.439Z,12.88
2019-03-28T08:44:14.143Z,12.80
2019-03-28T08:46:44.633Z,12.48
2019-03-28T08:49:16.199Z,12.42
2019-03-28T08:51:46.720Z,12.50
2019-03-28T08:54:17.236Z,12.56
2019-03-28T08:56:47.714Z,12.29
2019-03-28T08:59:18.278Z,12.36
2019-03-28T09:01:48.818Z,12.61
2019-03-28T09:04:20.405Z,12.81
2019-03-28T09:06:50.885Z,13.19
2019-03-28T09:09:21.540Z,13.33
2019-03-28T09:11:52.044Z,13.66
2019-03-28T09:14:23.635Z,13.23
2019-03-28T09:16:54.198Z,13.29
2019-03-28T09:19:24.640Z,13.05
2019-03-28T09:21:55.109Z,13.13
2019-03-28T09:24:25.632Z,13.15
2019-03-28T09:26:56.155Z,12.90
2019-03-28T09:29:26.613Z,12.74
2019-03-28T09:31:57.476Z,12.96
2019-03-28T09:34:27.925Z,13.40
2019-03-28T09:36:58.541Z,13.67
2019-03-28T09:39:28.994Z,14.03
2019-03-28T09:41:59.465Z,13.61
2019-03-28T09:44:30.793Z,13.47
2019-03-28T09:47:01.337Z,13.66
2019-03-28T09:49:31.894Z,13.87
2019-03-28T09:52:02.430Z,13.83
2019-03-28T09:54:33.062Z,13.84
2019-03-28T09:57:03.490Z,14.19
2019-03-28T09:59:33.999Z,14.42
2019-03-28T10:02:04.630Z,14.72
2019-03-28T10:04:35.118Z,15.04
2019-03-28T10:07:05.880Z,14.78
2019-03-28T10:09:36.768Z,14.70
2019-03-28T10:12:07.594Z,14.66
2019-03-28T10:14:38.136Z,14.54
2019-03-28T10:17:08.674Z,14.85
2019-03-28T10:19:39.195Z,15.36
2019-03-28T10:22:09.666Z,15.85
2019-03-28T10:24:41.654Z,15.88
2019-03-28T10:27:12.389Z,15.86
2019-03-28T10:29:42.887Z,15.50
2019-03-28T10:32:13.436Z,15.71
2019-03-28T10:34:43.947Z,15.11
2019-03-28T10:37:14.415Z,14.52
2019-03-28T10:39:44.945Z,14.31
2019-03-28T10:42:15.481Z,14.23
2019-03-28T10:44:45.930Z,14.37
2019-03-28T10:47:16.383Z,14.90
2019-03-28T10:49:46.886Z,15.12
2019-03-28T10:52:17.386Z,15.49
2019-03-28T10:54:47.829Z,15.42
2019-03-28T10:57:29.435Z,15.50
2019-03-28T10:59:50.444Z,15.33
2019-03-28T11:02:21.030Z,15.52
2019-03-28T11:04:51.684Z,15.69
2019-03-28T11:07:22.421Z,15.79
2019-03-28T11:09:52.861Z,15.84
2019-03-28T11:12:23.518Z,16.01
2019-03-28T11:14:53.945Z,15.34
2019-03-28T11:17:24.629Z,15.39
2019-03-28T11:19:56.143Z,15.38
2019-03-28T11:22:42.124Z,15.48
2019-03-28T11:25:14.290Z,15.82
2019-03-28T11:27:45.687Z,15.91
2019-03-28T11:30:18.303Z,16.08
2019-03-28T11:32:48.580Z,15.90
2019-03-28T11:35:19.099Z,15.68
2019-03-28T11:37:49.849Z,16.18
2019-03-28T11:40:20.352Z,16.19
2019-03-28T11:42:52.101Z,16.27
2019-03-28T11:45:22.735Z,16.59
2019-03-28T11:47:53.279Z,17.13
2019-03-28T11:50:39.181Z,16.88
2019-03-28T11:53:15.237Z,16.42
2019-03-28T11:55:59.811Z,16.37
2019-03-28T11:58:32.082Z,16.42
2019-03-28T12:01:03.004Z,16.66
2019-03-28T12:03:33.728Z,16.71
2019-03-28T12:06:04.262Z,16.53
2019-03-28T12:08:34.814Z,16.47
2019-03-28T12:11:05.408Z,16.06
2019-03-28T12:13:44.578Z,16.10
2019-03-28T12:16:08.218Z,16.48
2019-03-28T12:18:38.759Z,16.73
2019-03-28T12:21:09.364Z,16.42
2019-03-28T12:23:41.029Z,15.84
2019-03-28T12:26:11.612Z,15.61
2019-03-28T12:28:42.087Z,15.82
2019-03-28T12:31:12.731Z,15.76
2019-03-28T12:33:43.645Z,15.91
2019-03-28T12:36:14.190Z,15.65
2019-03-28T12:38:44.806Z,15.70
2019-03-28T12:41:15.444Z,15.66
2019-03-28T12:43:45.999Z,15.87
2019-03-28T12:46:16.491Z,15.25
2019-03-28T12:48:47.082Z,15.21
2019-03-28T12:51:17.584Z,15.27
2019-03-28T12:53:48.148Z,15.37
2019-03-28T12:56:19.588Z,15.42
2019-03-28T12:58:51.628Z,15.57
2019-03-28T13:01:22.210Z,15.65
2019-03-28T13:03:52.818Z,15.64
2019-03-28T13:06:23.326Z,15.45
2019-03-28T13:08:53.846Z,15.30
2019-03-28T13:11:25.425Z,14.96
2019-03-28T13:13:55.987Z,15.18
2019-03-28T13:16:26.540Z,15.04
2019-03-28T13:18:57.019Z,15.22
2019-03-28T13:21:27.532Z,15.27
2019-03-28T13:23:58.124Z,15.38
2019-03-28T13:26:28.719Z,15.57
2019-03-28T13:28:59.391Z,15.52
2019-03-28T13:31:29.969Z,15.35
2019-03-28T13:34:01.379Z,15.58
2019-03-28T13:36:33.203Z,15.81
2019-03-28T13:39:04.978Z,15.94
2019-03-28T13:41:35.701Z,16.17
2019-03-28T13:44:06.565Z,16.36
2019-03-28T13:46:38.270Z,16.50
2019-03-28T13:49:08.999Z,16.37
2019-03-28T13:51:39.580Z,16.17
2019-03-28T13:54:10.113Z,16.71
2019-03-28T13:56:40.690Z,16.61
2019-03-28T13:59:11.279Z,16.95
2019-03-28T14:01:41.717Z,17.00
2019-03-28T14:04:12.275Z,17.34
2019-03-28T14:06:42.830Z,17.24
2019-03-28T14:09:13.457Z,16.94
2019-03-28T14:11:44.293Z,16.67
2019-03-28T14:14:14.908Z,16.76
2019-03-28T14:16:45.466Z,16.29
2019-03-28T14:19:16.407Z,15.83
2019-03-28T14:21:47.011Z,15.49
2019-03-28T14:24:17.702Z,15.15
2019-03-28T14:26:48.323Z,15.07
2019-03-28T14:29:19.002Z,15.11
2019-03-28T14:31:49.601Z,15.08
2019-03-28T14:34:20.132Z,14.78
2019-03-28T14:36:50.616Z,14.71
2019-03-28T14:39:21.212Z,14.48
2019-03-28T14:41:51.708Z,14.43
2019-03-28T14:44:22.293Z,14.46
2019-03-28T14:46:54.460Z,14.24
2019-03-28T14:49:44.636Z,14.23
2019-03-28T14:52:23.995Z,14.31
2019-03-28T14:54:54.825Z,14.54
2019-03-28T14:57:25.405Z,14.61
2019-03-28T14:59:55.912Z,14.58
2019-03-28T15:02:26.462Z,14.52
2019-03-28T15:04:57.108Z,14.74
2019-03-28T15:07:28.321Z,14.60
2019-03-28T15:09:58.863Z,14.54
2019-03-28T15:12:29.423Z,14.39
2019-03-28T15:15:00.033Z,14.24
2019-03-28T15:17:31.712Z,14.44
2019-03-28T15:20:02.242Z,14.42
2019-03-28T15:22:32.865Z,14.29
2019-03-28T15:25:05.912Z,14.21
2019-03-28T15:27:36.616Z,14.32
2019-03-28T15:30:07.582Z,14.23
2019-03-28T15:32:38.242Z,14.33
2019-03-28T15:35:09.229Z,14.11
2019-03-28T15:37:40.813Z,14.06
2019-03-28T15:40:11.626Z,14.06
2019-03-28T15:42:42.627Z,13.93
2019-03-28T15:45:13.319Z,13.98
2019-03-28T15:47:44.490Z,13.97
2019-03-28T15:50:14.997Z,14.15
2019-03-28T15:52:45.569Z,14.25
2019-03-28T15:55:16.523Z,14.23
2019-03-28T15:57:47.364Z,14.12
2019-03-28T16:00:21.899Z,14.04
2019-03-28T16:02:56.497Z,14.00
2019-03-28T17:24:56.495Z,11.85
2019-03-28T17:27:29.321Z,11.89
2019-03-28T17:30:00.582Z,11.88
2019-03-28T17:32:31.719Z,11.92
2019-03-28T17:35:03.801Z,11.98
2019-03-28T17:37:34.532Z,11.98
2019-03-28T17:40:06.692Z,11.97
2019-03-28T17:42:37.240Z,11.86
2019-03-28T17:45:08.806Z,11.80
2019-03-28T17:47:39.527Z,11.75
2019-03-28T17:50:09.987Z,11.71
2019-03-28T17:52:40.698Z,11.66
2019-03-28T17:55:11.752Z,11.63
2019-03-28T17:57:43.730Z,11.58
2019-03-28T18:00:22.178Z,11.57
2019-03-28T18:02:53.068Z,11.50
2019-03-28T18:05:24.622Z,11.46
2019-03-28T18:07:55.559Z,11.44
2019-03-28T18:10:26.971Z,11.35
2019-03-28T18:12:57.643Z,11.27
2019-03-28T18:15:28.194Z,11.17
2019-03-28T18:17:58.777Z,11.12
2019-03-28T18:20:29.238Z,11.05
2019-03-28T18:22:59.766Z,10.96
2019-03-28T18:25:30.567Z,10.90
2019-03-28T18:28:01.264Z,10.83
2019-03-28T18:30:31.889Z,10.75
2019-03-28T18:33:03.960Z,10.67
2019-03-28T18:35:36.310Z,10.55
2019-03-28T18:38:07.291Z,10.47
2019-03-28T18:40:43.599Z,10.38
2019-03-28T18:43:16.348Z,10.30
2019-03-28T18:45:47.532Z,10.32
2019-03-28T18:48:28.164Z,10.24
2019-03-28T18:50:51.015Z,10.20
2019-03-28T18:53:21.543Z,10.05
2019-03-28T18:55:52.361Z,9.99
2019-03-28T18:58:23.401Z,9.87
2019-03-28T19:00:54.860Z,9.75
2019-03-28T19:03:50.076Z,9.69
2019-03-28T19:06:24.972Z,9.63
2019-03-28T19:08:55.563Z,9.55
2019-03-28T19:11:26.128Z,9.53
2019-03-28T19:13:56.666Z,9.63
2019-03-28T19:16:48.437Z,9.74
2019-03-28T19:19:19.836Z,9.79
2019-03-28T19:21:50.374Z,9.78
2019-03-28T19:24:20.907Z,9.72
2019-03-28T19:26:51.426Z,9.80
2019-03-28T19:29:21.901Z,9.86
2019-03-28T19:31:52.415Z,9.69
2019-03-28T19:34:23.112Z,9.64
2019-03-28T19:36:53.753Z,9.58
2019-03-28T19:39:33.004Z,9.51
2019-03-28T19:42:04.657Z,9.40
2019-03-28T19:44:36.034Z,9.32
2019-03-28T19:47:07.261Z,9.20
2019-03-28T19:49:37.776Z,9.14
2019-03-28T19:52:08.513Z,9.03
2019-03-28T19:54:39.037Z,8.96
2019-03-28T19:57:09.674Z,8.88
2019-03-28T19:59:40.453Z,8.79
2019-03-28T20:02:14.130Z,8.81
2019-03-28T20:04:43.866Z,8.77
2019-03-28T20:07:21.397Z,8.67
2019-03-28T20:09:46.697Z,8.51
2019-03-28T20:12:17.209Z,8.32
2019-03-28T20:14:47.763Z,8.20
2019-03-28T20:17:18.285Z,8.02
2019-03-28T20:19:48.864Z,7.91
2019-03-28T20:22:19.409Z,7.86
2019-03-28T20:24:49.881Z,7.80
2019-03-28T20:27:20.558Z,7.81
2019-03-28T20:29:51.075Z,7.90
2019-03-28T20:32:21.610Z,7.87
2019-03-28T20:34:52.752Z,7.88
2019-03-28T20:37:23.200Z,7.92
2019-03-28T20:39:53.668Z,7.93
2019-03-28T20:42:24.336Z,7.97
2019-03-28T20:44:54.889Z,8.06
2019-03-28T20:47:25.475Z,8.15
2019-03-28T20:49:56.016Z,8.24
2019-03-28T20:52:55.994Z,8.35
2019-03-28T20:55:38.088Z,8.43
2019-03-28T20:58:09.060Z,8.53
2019-03-28T21:00:41.931Z,8.58
2019-03-28T21:03:12.463Z,8.62
2019-03-28T21:05:42.975Z,8.67
2019-03-28T21:08:13.498Z,8.63
2019-03-28T21:10:43.955Z,8.69
2019-03-28T21:13:14.612Z,8.74
2019-03-28T21:15:45.980Z,8.78
2019-03-28T21:18:16.692Z,8.81
2019-03-28T21:20:47.240Z,8.82
2019-03-28T21:23:17.725Z,8.80
2019-03-28T21:25:48.938Z,8.84
2019-03-28T21:28:19.665Z,8.85
2019-03-28T21:30:50.187Z,8.78
2019-03-28T21:33:20.710Z,8.80
2019-03-28T21:35:51.660Z,8.76
2019-03-28T21:38:22.098Z,8.69
2019-03-28T21:40:53.171Z,8.66
2019-03-28T21:43:24.308Z,8.68
2019-03-28T21:45:54.783Z,8.76
2019-03-28T21:48:25.378Z,8.81
2019-03-28T21:50:55.845Z,8.85
2019-03-28T21:53:26.292Z,8.91
2019-03-28T21:55:57.532Z,8.95
2019-03-28T21:58:28.265Z,9.04
2019-03-28T22:00:58.787Z,9.13
2019-03-28T22:03:29.296Z,9.23
2019-03-28T22:05:59.807Z,9.39
2019-03-28T22:08:30.334Z,9.52
2019-03-28T22:11:00.883Z,9.68
2019-03-28T22:13:31.408Z,9.72
2019-03-28T22:16:01.893Z,9.76
2019-03-28T22:18:32.345Z,9.78
2019-03-28T22:21:02.833Z,9.78
2019-03-28T22:23:33.275Z,9.83
2019-03-28T22:26:03.921Z,9.82
2019-03-28T22:28:37.688Z,9.82
2019-03-28T22:31:06.685Z,9.82
2019-03-28T22:33:37.139Z,9.80
2019-03-28T22:36:07.599Z,9.80
2019-03-28T22:38:38.029Z,9.83
2019-03-28T22:41:08.530Z,9.86
2019-03-28T22:43:39.042Z,9.88
2019-03-28T22:46:09.859Z,9.92
2019-03-28T22:48:40.651Z,9.93
2019-03-28T22:51:11.185Z,9.95
2019-03-28T22:53:41.786Z,9.96
2019-03-28T22:56:12.268Z,9.98
2019-03-28T22:58:42.766Z,9.99
2019-03-28T23:01:13.309Z,9.97
2019-03-28T23:03:46.203Z,10.00
2019-03-28T23:06:17.321Z,9.98
2019-03-28T23:08:47.839Z,9.96
2019-03-28T23:11:18.383Z,9.96
2019-03-28T23:13:48.912Z,9.91
2019-03-28T23:16:20.980Z,9.91
2019-03-28T23:18:51.502Z,9.88
2019-03-28T23:21:32.778Z,9.86
2019-03-28T23:24:46.393Z,9.89
2019-03-28T23:27:21.865Z,9.86
2019-03-28T23:29:52.400Z,9.87
2019-03-28T23:32:23.330Z,9.87
2019-03-28T23:34:54.111Z,9.87
2019-03-28T23:37:25.342Z,9.84
2019-03-28T23:39:56.859Z,9.89
2019-03-28T23:42:27.964Z,9.92
2019-03-28T23:44:58.514Z,9.95
2019-03-28T23:47:30.921Z,9.93
2019-03-28T23:50:01.444Z,9.90
2019-03-28T23:52:32.278Z,9.87
2019-03-28T23:55:02.724Z,9.87
2019-03-28T23:57:33.241Z,9.86
